sensor_id;sensor_type;location;lat;lon;timestamp;pressure;altitude;pressure_sealevel;temperature
75658;BMP280;64255;49.892;17.884;2023-02-25T00:01:28;96598.94;;;6.56
75658;BMP280;64255;49.892;17.884;2023-02-25T00:03:55;96594.28;;;6.56
75658;BMP280;64255;49.892;17.884;2023-02-25T00:06:24;96596.50;;;6.58
75658;BMP280;64255;49.892;17.884;2023-02-25T00:08:52;96592.66;;;6.76
75658;BMP280;64255;49.892;17.884;2023-02-25T00:11:23;96598.69;;;6.65
75658;BMP280;64255;49.892;17.884;2023-02-25T00:13:50;96598.44;;;6.74
75658;BMP280;64255;49.892;17.884;2023-02-25T00:16:20;96591.69;;;6.73
75658;BMP280;64255;49.892;17.884;2023-02-25T00:18:52;96585.66;;;6.73
75658;BMP280;64255;49.892;17.884;2023-02-25T00:21:20;96572.09;;;6.54
75658;BMP280;64255;49.892;17.884;2023-02-25T00:23:49;96578.63;;;6.64
75658;BMP280;64255;49.892;17.884;2023-02-25T00:26:17;96573.06;;;6.73
75658;BMP280;64255;49.892;17.884;2023-02-25T00:28:45;96564.13;;;6.54
75658;BMP280;64255;49.892;17.884;2023-02-25T00:31:20;96571.34;;;6.48
75658;BMP280;64255;49.892;17.884;2023-02-25T00:33:50;96566.06;;;6.59
75658;BMP280;64255;49.892;17.884;2023-02-25T00:36:21;96558.72;;;6.20
75658;BMP280;64255;49.892;17.884;2023-02-25T00:38:52;96552.16;;;6.09
75658;BMP280;64255;49.892;17.884;2023-02-25T00:41:25;96546.41;;;6.22
75658;BMP280;64255;49.892;17.884;2023-02-25T00:43:56;96536.84;;;6.65
75658;BMP280;64255;49.892;17.884;2023-02-25T00:46:24;96537.78;;;6.73
75658;BMP280;64255;49.892;17.884;2023-02-25T00:48:51;96546.41;;;6.34
75658;BMP280;64255;49.892;17.884;2023-02-25T00:51:26;96543.34;;;6.69
75658;BMP280;64255;49.892;17.884;2023-02-25T00:53:54;96549.59;;;6.49
75658;BMP280;64255;49.892;17.884;2023-02-25T00:56:23;96546.47;;;6.62
75658;BMP280;64255;49.892;17.884;2023-02-25T00:58:52;96543.81;;;6.62
75658;BMP280;64255;49.892;17.884;2023-02-25T01:01:28;96537.91;;;6.07
75658;BMP280;64255;49.892;17.884;2023-02-25T01:03:57;96536.03;;;6.30
75658;BMP280;64255;49.892;17.884;2023-02-25T01:06:27;96525.59;;;6.09
75658;BMP280;64255;49.892;17.884;2023-02-25T01:08:57;96521.78;;;6.22
75658;BMP280;64255;49.892;17.884;2023-02-25T01:11:28;96520.31;;;6.21
75658;BMP280;64255;49.892;17.884;2023-02-25T01:14:00;96522.03;;;6.24
75658;BMP280;64255;49.892;17.884;2023-02-25T01:16:30;96523.44;;;6.13
75658;BMP280;64255;49.892;17.884;2023-02-25T01:19:03;96522.84;;;5.87
75658;BMP280;64255;49.892;17.884;2023-02-25T01:21:38;96533.56;;;6.09
75658;BMP280;64255;49.892;17.884;2023-02-25T01:24:19;96541.59;;;6.26
75658;BMP280;64255;49.892;17.884;2023-02-25T01:26:49;96547.00;;;5.89
75658;BMP280;64255;49.892;17.884;2023-02-25T01:29:21;96538.81;;;5.92
75658;BMP280;64255;49.892;17.884;2023-02-25T01:31:55;96551.88;;;6.02
75658;BMP280;64255;49.892;17.884;2023-02-25T01:34:23;96529.44;;;5.97
75658;BMP280;64255;49.892;17.884;2023-02-25T01:36:51;96527.00;;;5.93
75658;BMP280;64255;49.892;17.884;2023-02-25T01:39:22;96520.03;;;6.07
75658;BMP280;64255;49.892;17.884;2023-02-25T01:41:51;96516.91;;;6.20
75658;BMP280;64255;49.892;17.884;2023-02-25T01:46:55;96504.78;;;6.02
75658;BMP280;64255;49.892;17.884;2023-02-25T01:49:44;96520.44;;;5.83
75658;BMP280;64255;49.892;17.884;2023-02-25T01:52:21;96535.38;;;5.80
75658;BMP280;64255;49.892;17.884;2023-02-25T01:54:55;96543.03;;;5.67
75658;BMP280;64255;49.892;17.884;2023-02-25T01:57:24;96554.75;;;5.49
75658;BMP280;64255;49.892;17.884;2023-02-25T01:59:53;96560.50;;;5.42
75658;BMP280;64255;49.892;17.884;2023-02-25T02:02:22;96556.88;;;5.39
75658;BMP280;64255;49.892;17.884;2023-02-25T02:04:53;96553.88;;;5.26
75658;BMP280;64255;49.892;17.884;2023-02-25T02:07:22;96552.88;;;5.17
75658;BMP280;64255;49.892;17.884;2023-02-25T02:09:49;96547.44;;;5.00
75658;BMP280;64255;49.892;17.884;2023-02-25T02:12:16;96561.19;;;5.05
75658;BMP280;64255;49.892;17.884;2023-02-25T02:14:44;96563.56;;;5.02
75658;BMP280;64255;49.892;17.884;2023-02-25T02:18:00;96560.41;;;4.93
75658;BMP280;64255;49.892;17.884;2023-02-25T02:24:21;96568.44;;;4.78
75658;BMP280;64255;49.892;17.884;2023-02-25T02:27:15;96574.22;;;4.76
75658;BMP280;64255;49.892;17.884;2023-02-25T02:33:01;96600.81;;;4.61
75658;BMP280;64255;49.892;17.884;2023-02-25T02:35:39;96605.38;;;4.87
75658;BMP280;64255;49.892;17.884;2023-02-25T02:38:32;96607.88;;;4.70
75658;BMP280;64255;49.892;17.884;2023-02-25T02:41:27;96623.47;;;4.62
75658;BMP280;64255;49.892;17.884;2023-02-25T02:44:15;96622.47;;;4.80
75658;BMP280;64255;49.892;17.884;2023-02-25T02:47:03;96616.84;;;4.99
75658;BMP280;64255;49.892;17.884;2023-02-25T02:49:56;96607.47;;;4.77
75658;BMP280;64255;49.892;17.884;2023-02-25T02:52:32;96609.97;;;4.60
75658;BMP280;64255;49.892;17.884;2023-02-25T02:55:12;96630.69;;;4.88
75658;BMP280;64255;49.892;17.884;2023-02-25T02:57:41;96623.53;;;4.94
75658;BMP280;64255;49.892;17.884;2023-02-25T03:00:14;96613.44;;;4.72
75658;BMP280;64255;49.892;17.884;2023-02-25T03:02:54;96622.41;;;4.54
75658;BMP280;64255;49.892;17.884;2023-02-25T03:05:26;96627.19;;;4.50
75658;BMP280;64255;49.892;17.884;2023-02-25T03:08:09;96611.53;;;4.52
75658;BMP280;64255;49.892;17.884;2023-02-25T03:10:37;96604.47;;;4.43
75658;BMP280;64255;49.892;17.884;2023-02-25T03:13:05;96594.66;;;4.29
75658;BMP280;64255;49.892;17.884;2023-02-25T03:15:33;96602.47;;;4.59
75658;BMP280;64255;49.892;17.884;2023-02-25T03:18:38;96610.59;;;4.55
75658;BMP280;64255;49.892;17.884;2023-02-25T03:21:19;96604.22;;;4.20
75658;BMP280;64255;49.892;17.884;2023-02-25T03:23:48;96602.53;;;4.02
75658;BMP280;64255;49.892;17.884;2023-02-25T03:26:31;96604.03;;;4.09
75658;BMP280;64255;49.892;17.884;2023-02-25T03:28:59;96606.78;;;4.35
75658;BMP280;64255;49.892;17.884;2023-02-25T03:31:39;96607.78;;;4.17
75658;BMP280;64255;49.892;17.884;2023-02-25T03:34:19;96611.34;;;4.14
75658;BMP280;64255;49.892;17.884;2023-02-25T03:37:13;96613.63;;;4.06
75658;BMP280;64255;49.892;17.884;2023-02-25T03:39:48;96624.19;;;4.21
75658;BMP280;64255;49.892;17.884;2023-02-25T03:42:28;96627.78;;;4.39
75658;BMP280;64255;49.892;17.884;2023-02-25T03:45:02;96625.78;;;4.13
75658;BMP280;64255;49.892;17.884;2023-02-25T03:47:35;96619.56;;;4.16
75658;BMP280;64255;49.892;17.884;2023-02-25T03:50:18;96620.34;;;4.22
75658;BMP280;64255;49.892;17.884;2023-02-25T03:52:46;96608.53;;;4.23
75658;BMP280;64255;49.892;17.884;2023-02-25T03:55:16;96618.38;;;4.17
75658;BMP280;64255;49.892;17.884;2023-02-25T03:57:46;96611.81;;;4.13
75658;BMP280;64255;49.892;17.884;2023-02-25T04:00:28;96610.97;;;3.86
75658;BMP280;64255;49.892;17.884;2023-02-25T04:02:56;96618.50;;;4.29
75658;BMP280;64255;49.892;17.884;2023-02-25T04:05:24;96616.81;;;3.75
75658;BMP280;64255;49.892;17.884;2023-02-25T04:07:55;96614.38;;;3.71
75658;BMP280;64255;49.892;17.884;2023-02-25T04:10:24;96606.31;;;4.37
75658;BMP280;64255;49.892;17.884;2023-02-25T04:12:51;96618.00;;;4.51
75658;BMP280;64255;49.892;17.884;2023-02-25T04:15:19;96611.47;;;4.46
75658;BMP280;64255;49.892;17.884;2023-02-25T04:17:47;96605.06;;;4.12
75658;BMP280;64255;49.892;17.884;2023-02-25T04:20:15;96620.09;;;4.41
75658;BMP280;64255;49.892;17.884;2023-02-25T04:22:42;96620.94;;;4.32
75658;BMP280;64255;49.892;17.884;2023-02-25T04:25:10;96624.00;;;4.25
75658;BMP280;64255;49.892;17.884;2023-02-25T04:27:38;96623.94;;;4.19
75658;BMP280;64255;49.892;17.884;2023-02-25T04:30:06;96624.47;;;3.88
75658;BMP280;64255;49.892;17.884;2023-02-25T04:32:33;96620.06;;;4.00
75658;BMP280;64255;49.892;17.884;2023-02-25T04:35:01;96620.19;;;4.11
75658;BMP280;64255;49.892;17.884;2023-02-25T04:37:28;96612.13;;;4.00
75658;BMP280;64255;49.892;17.884;2023-02-25T04:39:56;96605.38;;;3.99
75658;BMP280;64255;49.892;17.884;2023-02-25T04:42:23;96606.84;;;3.85
75658;BMP280;64255;49.892;17.884;2023-02-25T04:44:51;96601.66;;;3.90
75658;BMP280;64255;49.892;17.884;2023-02-25T04:47:18;96600.56;;;3.82
75658;BMP280;64255;49.892;17.884;2023-02-25T04:49:45;96611.63;;;3.66
75658;BMP280;64255;49.892;17.884;2023-02-25T04:52:15;96606.09;;;3.49
75658;BMP280;64255;49.892;17.884;2023-02-25T04:54:42;96600.25;;;3.45
75658;BMP280;64255;49.892;17.884;2023-02-25T04:57:11;96602.91;;;3.30
75658;BMP280;64255;49.892;17.884;2023-02-25T04:59:39;96603.41;;;3.28
75658;BMP280;64255;49.892;17.884;2023-02-25T05:02:07;96618.22;;;3.25
75658;BMP280;64255;49.892;17.884;2023-02-25T05:04:37;96625.25;;;3.43
75658;BMP280;64255;49.892;17.884;2023-02-25T05:07:06;96627.81;;;3.53
75658;BMP280;64255;49.892;17.884;2023-02-25T05:09:34;96621.97;;;3.34
75658;BMP280;64255;49.892;17.884;2023-02-25T05:12:01;96614.50;;;3.17
75658;BMP280;64255;49.892;17.884;2023-02-25T05:14:29;96616.50;;;3.52
75658;BMP280;64255;49.892;17.884;2023-02-25T05:16:56;96608.72;;;3.64
75658;BMP280;64255;49.892;17.884;2023-02-25T05:19:24;96604.25;;;3.55
75658;BMP280;64255;49.892;17.884;2023-02-25T05:21:52;96601.38;;;3.53
75658;BMP280;64255;49.892;17.884;2023-02-25T05:24:20;96595.44;;;3.43
75658;BMP280;64255;49.892;17.884;2023-02-25T05:26:48;96596.34;;;3.40
75658;BMP280;64255;49.892;17.884;2023-02-25T05:29:16;96599.50;;;3.59
75658;BMP280;64255;49.892;17.884;2023-02-25T05:31:42;96601.53;;;3.64
75658;BMP280;64255;49.892;17.884;2023-02-25T05:34:10;96595.88;;;3.56
75658;BMP280;64255;49.892;17.884;2023-02-25T05:36:37;96600.00;;;3.42
75658;BMP280;64255;49.892;17.884;2023-02-25T05:39:04;96603.19;;;3.32
75658;BMP280;64255;49.892;17.884;2023-02-25T05:41:31;96609.38;;;3.43
75658;BMP280;64255;49.892;17.884;2023-02-25T05:43:58;96591.69;;;3.50
75658;BMP280;64255;49.892;17.884;2023-02-25T05:46:25;96594.41;;;3.55
75658;BMP280;64255;49.892;17.884;2023-02-25T05:48:53;96591.50;;;3.53
75658;BMP280;64255;49.892;17.884;2023-02-25T05:51:21;96591.84;;;3.61
75658;BMP280;64255;49.892;17.884;2023-02-25T05:53:50;96596.53;;;3.51
75658;BMP280;64255;49.892;17.884;2023-02-25T05:56:23;96616.88;;;3.30
75658;BMP280;64255;49.892;17.884;2023-02-25T05:58:51;96610.38;;;3.61
75658;BMP280;64255;49.892;17.884;2023-02-25T06:01:23;96614.13;;;3.54
75658;BMP280;64255;49.892;17.884;2023-02-25T06:03:51;96619.31;;;3.49
75658;BMP280;64255;49.892;17.884;2023-02-25T06:06:19;96628.25;;;3.36
75658;BMP280;64255;49.892;17.884;2023-02-25T06:08:48;96627.59;;;3.56
75658;BMP280;64255;49.892;17.884;2023-02-25T06:11:23;96624.78;;;3.60
75658;BMP280;64255;49.892;17.884;2023-02-25T06:13:57;96637.28;;;3.59
75658;BMP280;64255;49.892;17.884;2023-02-25T06:16:30;96641.50;;;3.51
75658;BMP280;64255;49.892;17.884;2023-02-25T06:19:00;96633.84;;;3.53
75658;BMP280;64255;49.892;17.884;2023-02-25T06:21:27;96635.81;;;3.43
75658;BMP280;64255;49.892;17.884;2023-02-25T06:23:55;96641.50;;;3.66
75658;BMP280;64255;49.892;17.884;2023-02-25T06:26:22;96646.00;;;3.81
75658;BMP280;64255;49.892;17.884;2023-02-25T06:28:50;96643.00;;;3.88
75658;BMP280;64255;49.892;17.884;2023-02-25T06:31:20;96654.13;;;4.28
75658;BMP280;64255;49.892;17.884;2023-02-25T06:33:48;96647.78;;;4.40
75658;BMP280;64255;49.892;17.884;2023-02-25T06:36:18;96656.91;;;4.39
75658;BMP280;64255;49.892;17.884;2023-02-25T06:38:46;96658.97;;;4.50
75658;BMP280;64255;49.892;17.884;2023-02-25T06:41:16;96653.34;;;5.10
75658;BMP280;64255;49.892;17.884;2023-02-25T06:43:44;96654.13;;;4.48
75658;BMP280;64255;49.892;17.884;2023-02-25T06:46:13;96666.25;;;4.55
75658;BMP280;64255;49.892;17.884;2023-02-25T06:48:41;96658.81;;;5.59
75658;BMP280;64255;49.892;17.884;2023-02-25T06:51:08;96653.44;;;5.47
75658;BMP280;64255;49.892;17.884;2023-02-25T06:53:38;96665.28;;;5.90
75658;BMP280;64255;49.892;17.884;2023-02-25T06:56:06;96663.06;;;6.92
75658;BMP280;64255;49.892;17.884;2023-02-25T06:58:34;96667.91;;;6.22
75658;BMP280;64255;49.892;17.884;2023-02-25T07:01:10;96678.97;;;6.86
75658;BMP280;64255;49.892;17.884;2023-02-25T07:03:38;96670.59;;;7.39
75658;BMP280;64255;49.892;17.884;2023-02-25T07:06:07;96678.56;;;7.79
75658;BMP280;64255;49.892;17.884;2023-02-25T07:08:34;96676.84;;;7.75
75658;BMP280;64255;49.892;17.884;2023-02-25T07:11:29;96672.25;;;7.08
75658;BMP280;64255;49.892;17.884;2023-02-25T07:13:57;96670.44;;;6.59
75658;BMP280;64255;49.892;17.884;2023-02-25T07:16:24;96672.94;;;7.94
75658;BMP280;64255;49.892;17.884;2023-02-25T07:18:51;96670.69;;;8.15
75658;BMP280;64255;49.892;17.884;2023-02-25T07:21:19;96675.69;;;8.41
75658;BMP280;64255;49.892;17.884;2023-02-25T07:23:46;96684.31;;;9.36
75658;BMP280;64255;49.892;17.884;2023-02-25T07:26:14;96672.81;;;8.86
75658;BMP280;64255;49.892;17.884;2023-02-25T07:28:42;96689.63;;;7.94
75658;BMP280;64255;49.892;17.884;2023-02-25T07:31:17;96674.97;;;8.40
75658;BMP280;64255;49.892;17.884;2023-02-25T07:33:44;96674.94;;;8.52
75658;BMP280;64255;49.892;17.884;2023-02-25T07:36:13;96676.47;;;8.30
75658;BMP280;64255;49.892;17.884;2023-02-25T07:38:41;96669.66;;;9.18
75658;BMP280;64255;49.892;17.884;2023-02-25T07:41:13;96681.31;;;8.26
75658;BMP280;64255;49.892;17.884;2023-02-25T07:43:40;96660.59;;;8.55
75658;BMP280;64255;49.892;17.884;2023-02-25T07:46:09;96686.03;;;7.86
75658;BMP280;64255;49.892;17.884;2023-02-25T07:48:36;96675.69;;;8.88
75658;BMP280;64255;49.892;17.884;2023-02-25T07:51:09;96666.69;;;9.28
75658;BMP280;64255;49.892;17.884;2023-02-25T07:53:38;96677.63;;;8.88
75658;BMP280;64255;49.892;17.884;2023-02-25T07:56:07;96681.47;;;9.84
75658;BMP280;64255;49.892;17.884;2023-02-25T07:58:35;96667.28;;;9.39
75658;BMP280;64255;49.892;17.884;2023-02-25T08:01:39;96668.38;;;7.77
75658;BMP280;64255;49.892;17.884;2023-02-25T08:04:07;96667.13;;;6.76
75658;BMP280;64255;49.892;17.884;2023-02-25T08:06:37;96672.66;;;6.67
75658;BMP280;64255;49.892;17.884;2023-02-25T08:09:09;96670.44;;;6.54
75658;BMP280;64255;49.892;17.884;2023-02-25T08:11:36;96677.78;;;6.21
75658;BMP280;64255;49.892;17.884;2023-02-25T08:14:03;96677.72;;;6.16
75658;BMP280;64255;49.892;17.884;2023-02-25T08:16:32;96674.25;;;5.92
75658;BMP280;64255;49.892;17.884;2023-02-25T08:18:59;96683.88;;;5.58
75658;BMP280;64255;49.892;17.884;2023-02-25T08:21:26;96678.91;;;5.71
75658;BMP280;64255;49.892;17.884;2023-02-25T08:23:53;96692.88;;;5.66
75658;BMP280;64255;49.892;17.884;2023-02-25T08:26:22;96687.41;;;5.75
75658;BMP280;64255;49.892;17.884;2023-02-25T08:28:50;96682.81;;;5.76
75658;BMP280;64255;49.892;17.884;2023-02-25T08:31:19;96691.59;;;5.56
75658;BMP280;64255;49.892;17.884;2023-02-25T08:33:49;96685.41;;;5.70
75658;BMP280;64255;49.892;17.884;2023-02-25T08:36:22;96682.03;;;5.64
75658;BMP280;64255;49.892;17.884;2023-02-25T08:38:51;96673.56;;;6.03
75658;BMP280;64255;49.892;17.884;2023-02-25T08:41:21;96686.88;;;6.09
75658;BMP280;64255;49.892;17.884;2023-02-25T08:43:51;96692.81;;;7.02
75658;BMP280;64255;49.892;17.884;2023-02-25T08:46:19;96704.44;;;6.44
75658;BMP280;64255;49.892;17.884;2023-02-25T08:48:52;96708.00;;;6.24
75658;BMP280;64255;49.892;17.884;2023-02-25T08:51:22;96707.78;;;6.33
75658;BMP280;64255;49.892;17.884;2023-02-25T08:53:50;96707.59;;;5.99
75658;BMP280;64255;49.892;17.884;2023-02-25T08:56:17;96710.09;;;5.76
75658;BMP280;64255;49.892;17.884;2023-02-25T08:58:44;96732.16;;;6.26
75658;BMP280;64255;49.892;17.884;2023-02-25T09:01:15;96720.09;;;6.25
75658;BMP280;64255;49.892;17.884;2023-02-25T09:03:47;96729.44;;;6.20
75658;BMP280;64255;49.892;17.884;2023-02-25T09:06:14;96739.97;;;5.71
75658;BMP280;64255;49.892;17.884;2023-02-25T09:08:42;96740.09;;;5.82
75658;BMP280;64255;49.892;17.884;2023-02-25T09:11:09;96744.88;;;5.78
75658;BMP280;64255;49.892;17.884;2023-02-25T09:13:36;96732.34;;;5.85
75658;BMP280;64255;49.892;17.884;2023-02-25T09:16:03;96730.59;;;5.76
75658;BMP280;64255;49.892;17.884;2023-02-25T09:18:31;96729.84;;;5.70
75658;BMP280;64255;49.892;17.884;2023-02-25T09:20:58;96726.28;;;6.10
75658;BMP280;64255;49.892;17.884;2023-02-25T09:23:25;96717.44;;;5.93
75658;BMP280;64255;49.892;17.884;2023-02-25T09:25:53;96726.63;;;5.60
75658;BMP280;64255;49.892;17.884;2023-02-25T09:28:20;96736.91;;;6.10
75658;BMP280;64255;49.892;17.884;2023-02-25T09:30:47;96729.81;;;5.96
75658;BMP280;64255;49.892;17.884;2023-02-25T09:33:14;96725.81;;;6.18
75658;BMP280;64255;49.892;17.884;2023-02-25T09:35:41;96729.41;;;6.58
75658;BMP280;64255;49.892;17.884;2023-02-25T09:38:09;96727.72;;;6.55
75658;BMP280;64255;49.892;17.884;2023-02-25T09:40:37;96727.28;;;6.19
75658;BMP280;64255;49.892;17.884;2023-02-25T09:43:22;96723.50;;;6.37
75658;BMP280;64255;49.892;17.884;2023-02-25T09:46:07;96734.50;;;6.12
75658;BMP280;64255;49.892;17.884;2023-02-25T09:49:26;96741.47;;;6.10
75658;BMP280;64255;49.892;17.884;2023-02-25T09:54:54;96734.19;;;5.73
75658;BMP280;64255;49.892;17.884;2023-02-25T09:57:22;96729.41;;;6.14
75658;BMP280;64255;49.892;17.884;2023-02-25T09:59:51;96733.91;;;5.97
75658;BMP280;64255;49.892;17.884;2023-02-25T10:08:50;96726.88;;;5.62
75658;BMP280;64255;49.892;17.884;2023-02-25T10:14:45;96724.56;;;6.07
75658;BMP280;64255;49.892;17.884;2023-02-25T10:17:36;96728.72;;;6.20
75658;BMP280;64255;49.892;17.884;2023-02-25T10:20:42;96722.25;;;5.89
75658;BMP280;64255;49.892;17.884;2023-02-25T10:26:40;96728.47;;;6.18
75658;BMP280;64255;49.892;17.884;2023-02-25T10:29:46;96735.66;;;6.06
75658;BMP280;64255;49.892;17.884;2023-02-25T10:32:24;96735.22;;;6.13
75658;BMP280;64255;49.892;17.884;2023-02-25T10:35:00;96732.56;;;6.13
75658;BMP280;64255;49.892;17.884;2023-02-25T10:37:36;96727.41;;;6.41
75658;BMP280;64255;49.892;17.884;2023-02-25T10:40:06;96727.97;;;6.13
75658;BMP280;64255;49.892;17.884;2023-02-25T10:42:42;96719.50;;;6.09
75658;BMP280;64255;49.892;17.884;2023-02-25T10:45:16;96724.28;;;6.05
75658;BMP280;64255;49.892;17.884;2023-02-25T10:47:54;96731.09;;;6.12
75658;BMP280;64255;49.892;17.884;2023-02-25T10:50:28;96741.78;;;5.86
75658;BMP280;64255;49.892;17.884;2023-02-25T10:53:15;96733.97;;;6.08
75658;BMP280;64255;49.892;17.884;2023-02-25T10:58:34;96749.19;;;6.08
75658;BMP280;64255;49.892;17.884;2023-02-25T11:01:22;96738.50;;;6.02
75658;BMP280;64255;49.892;17.884;2023-02-25T11:03:59;96746.47;;;6.02
75658;BMP280;64255;49.892;17.884;2023-02-25T11:06:34;96738.69;;;6.25
75658;BMP280;64255;49.892;17.884;2023-02-25T11:12:15;96758.06;;;5.99
75658;BMP280;64255;49.892;17.884;2023-02-25T11:14:43;96760.84;;;6.16
75658;BMP280;64255;49.892;17.884;2023-02-25T11:17:18;96760.84;;;6.16
75658;BMP280;64255;49.892;17.884;2023-02-25T11:20:21;96765.78;;;5.97
75658;BMP280;64255;49.892;17.884;2023-02-25T11:22:55;96756.97;;;6.17
75658;BMP280;64255;49.892;17.884;2023-02-25T11:25:52;96764.94;;;6.11
75658;BMP280;64255;49.892;17.884;2023-02-25T11:28:40;96760.72;;;6.42
75658;BMP280;64255;49.892;17.884;2023-02-25T11:31:32;96761.84;;;6.68
75658;BMP280;64255;49.892;17.884;2023-02-25T11:34:28;96766.16;;;7.20
75658;BMP280;64255;49.892;17.884;2023-02-25T11:37:23;96766.59;;;7.13
75658;BMP280;64255;49.892;17.884;2023-02-25T11:39:54;96756.22;;;7.37
75658;BMP280;64255;49.892;17.884;2023-02-25T11:42:25;96762.50;;;7.17
75658;BMP280;64255;49.892;17.884;2023-02-25T11:45:04;96757.56;;;6.87
75658;BMP280;64255;49.892;17.884;2023-02-25T11:47:36;96770.59;;;6.80
75658;BMP280;64255;49.892;17.884;2023-02-25T11:50:25;96764.53;;;6.79
75658;BMP280;64255;49.892;17.884;2023-02-25T11:53:39;96765.97;;;6.69
75658;BMP280;64255;49.892;17.884;2023-02-25T12:02:37;96776.75;;;6.54
75658;BMP280;64255;49.892;17.884;2023-02-25T12:05:26;96785.22;;;7.13
75658;BMP280;64255;49.892;17.884;2023-02-25T12:17:28;96781.94;;;7.74
75658;BMP280;64255;49.892;17.884;2023-02-25T12:53:17;96801.22;;;6.26
75658;BMP280;64255;49.892;17.884;2023-02-25T13:02:34;96804.84;;;6.23
75658;BMP280;64255;49.892;17.884;2023-02-25T13:08:36;96801.22;;;6.26
75658;BMP280;64255;49.892;17.884;2023-02-25T13:15:02;96812.06;;;5.90
75658;BMP280;64255;49.892;17.884;2023-02-25T13:18:08;96806.91;;;6.07
75658;BMP280;64255;49.892;17.884;2023-02-25T13:23:34;96814.78;;;5.96
75658;BMP280;64255;49.892;17.884;2023-02-25T13:32:26;96828.28;;;5.92
75658;BMP280;64255;49.892;17.884;2023-02-25T13:35:12;96835.84;;;6.05
75658;BMP280;64255;49.892;17.884;2023-02-25T13:46:48;96838.09;;;6.12
75658;BMP280;64255;49.892;17.884;2023-02-25T13:55:53;96846.56;;;6.17
75658;BMP280;64255;49.892;17.884;2023-02-25T14:10:23;96857.84;;;6.06
75658;BMP280;64255;49.892;17.884;2023-02-25T14:16:19;96867.72;;;6.05
75658;BMP280;64255;49.892;17.884;2023-02-25T14:19:42;96874.84;;;6.20
75658;BMP280;64255;49.892;17.884;2023-02-25T14:23:07;96878.88;;;6.09
75658;BMP280;64255;49.892;17.884;2023-02-25T14:26:31;96879.25;;;5.96
75658;BMP280;64255;49.892;17.884;2023-02-25T14:35:35;96877.22;;;6.12
75658;BMP280;64255;49.892;17.884;2023-02-25T14:38:14;96881.81;;;6.11
75658;BMP280;64255;49.892;17.884;2023-02-25T14:41:29;96893.41;;;6.14
75658;BMP280;64255;49.892;17.884;2023-02-25T14:44:11;96906.38;;;6.06
75658;BMP280;64255;49.892;17.884;2023-02-25T14:47:00;96892.81;;;6.04
75658;BMP280;64255;49.892;17.884;2023-02-25T14:50:14;96910.22;;;6.05
75658;BMP280;64255;49.892;17.884;2023-02-25T14:58:49;96913.16;;;6.07
75658;BMP280;64255;49.892;17.884;2023-02-25T15:22:26;96946.19;;;5.80
75658;BMP280;64255;49.892;17.884;2023-02-25T15:27:50;96959.75;;;5.82
75658;BMP280;64255;49.892;17.884;2023-02-25T15:30:24;96957.69;;;5.51
75658;BMP280;64255;49.892;17.884;2023-02-25T15:33:26;96949.56;;;5.60
75658;BMP280;64255;49.892;17.884;2023-02-25T15:36:25;96960.84;;;5.55
75658;BMP280;64255;49.892;17.884;2023-02-25T15:38:54;96966.50;;;5.62
75658;BMP280;64255;49.892;17.884;2023-02-25T15:43:59;96969.03;;;5.00
75658;BMP280;64255;49.892;17.884;2023-02-25T15:46:49;96971.56;;;5.25
75658;BMP280;64255;49.892;17.884;2023-02-25T15:49:34;96965.75;;;5.06
75658;BMP280;64255;49.892;17.884;2023-02-25T15:52:04;96971.63;;;4.80
75658;BMP280;64255;49.892;17.884;2023-02-25T15:57:03;96984.22;;;4.70
75658;BMP280;64255;49.892;17.884;2023-02-25T15:59:51;97001.88;;;5.18
75658;BMP280;64255;49.892;17.884;2023-02-25T16:05:16;97014.91;;;4.32
75658;BMP280;64255;49.892;17.884;2023-02-25T16:08:21;97019.84;;;4.39
75658;BMP280;64255;49.892;17.884;2023-02-25T16:10:54;97014.31;;;4.13
75658;BMP280;64255;49.892;17.884;2023-02-25T16:13:34;97030.63;;;4.35
75658;BMP280;64255;49.892;17.884;2023-02-25T16:16:03;97025.44;;;4.41
75658;BMP280;64255;49.892;17.884;2023-02-25T16:18:42;97036.34;;;3.85
75658;BMP280;64255;49.892;17.884;2023-02-25T16:21:59;97042.47;;;4.01
75658;BMP280;64255;49.892;17.884;2023-02-25T16:24:19;97051.25;;;4.07
75658;BMP280;64255;49.892;17.884;2023-02-25T16:40:52;97084.84;;;3.58
75658;BMP280;64255;49.892;17.884;2023-02-25T16:43:26;97090.28;;;3.64
75658;BMP280;64255;49.892;17.884;2023-02-25T16:45:55;97098.22;;;3.64
75658;BMP280;64255;49.892;17.884;2023-02-25T16:48:49;97103.06;;;3.74
75658;BMP280;64255;49.892;17.884;2023-02-25T16:54:28;97124.53;;;3.58
75658;BMP280;64255;49.892;17.884;2023-02-25T16:57:01;97126.44;;;3.67
75658;BMP280;64255;49.892;17.884;2023-02-25T16:59:36;97124.31;;;3.80
75658;BMP280;64255;49.892;17.884;2023-02-25T17:04:50;97126.19;;;3.37
75658;BMP280;64255;49.892;17.884;2023-02-25T17:09:54;97138.03;;;3.69
75658;BMP280;64255;49.892;17.884;2023-02-25T17:12:42;97142.97;;;3.43
75658;BMP280;64255;49.892;17.884;2023-02-25T17:15:32;97150.59;;;3.41
75658;BMP280;64255;49.892;17.884;2023-02-25T17:18:30;97154.63;;;3.18
75658;BMP280;64255;49.892;17.884;2023-02-25T17:23:52;97161.78;;;3.26
75658;BMP280;64255;49.892;17.884;2023-02-25T17:26:20;97167.38;;;3.47
75658;BMP280;64255;49.892;17.884;2023-02-25T17:28:54;97180.44;;;3.51
75658;BMP280;64255;49.892;17.884;2023-02-25T17:31:26;97182.34;;;3.32
75658;BMP280;64255;49.892;17.884;2023-02-25T17:33:59;97184.22;;;3.68
75658;BMP280;64255;49.892;17.884;2023-02-25T17:36:31;97184.41;;;3.37
75658;BMP280;64255;49.892;17.884;2023-02-25T17:39:04;97186.78;;;3.96
75658;BMP280;64255;49.892;17.884;2023-02-25T17:41:34;97190.53;;;3.62
75658;BMP280;64255;49.892;17.884;2023-02-25T17:44:02;97193.69;;;3.41
75658;BMP280;64255;49.892;17.884;2023-02-25T17:46:34;97198.50;;;3.52
75658;BMP280;64255;49.892;17.884;2023-02-25T17:49:25;97200.41;;;3.61
75658;BMP280;64255;49.892;17.884;2023-02-25T17:52:21;97207.63;;;3.61
75658;BMP280;64255;49.892;17.884;2023-02-25T17:54:58;97214.81;;;3.79
75658;BMP280;64255;49.892;17.884;2023-02-25T17:57:28;97214.13;;;3.22
75658;BMP280;64255;49.892;17.884;2023-02-25T18:00:07;97212.03;;;3.54
75658;BMP280;64255;49.892;17.884;2023-02-25T18:02:41;97215.69;;;3.66
75658;BMP280;64255;49.892;17.884;2023-02-25T18:07:41;97231.72;;;3.53
75658;BMP280;64255;49.892;17.884;2023-02-25T18:13:03;97241.25;;;3.69
75658;BMP280;64255;49.892;17.884;2023-02-25T18:15:33;97247.03;;;3.21
75658;BMP280;64255;49.892;17.884;2023-02-25T18:18:04;97249.03;;;3.08
75658;BMP280;64255;49.892;17.884;2023-02-25T18:20:37;97251.84;;;3.69